sensor_id;sensor_type;location;lat;lon;timestamp;P1;durP1;ratioP1;P2;durP2;ratioP2
35691;SDS011;26978;44.830;-0.674;2023-04-01T00:00:29;36.83;;;5.82;;
35691;SDS011;26978;44.830;-0.674;2023-04-01T00:02:54;43.95;;;5.90;;
35691;SDS011;26978;44.830;-0.674;2023-04-01T00:05:20;45.78;;;7.55;;
35691;SDS011;26978;44.830;-0.674;2023-04-01T00:07:46;46.65;;;7.03;;
35691;SDS011;26978;44.830;-0.674;2023-04-01T00:10:12;41.60;;;6.20;;
35691;SDS011;26978;44.830;-0.674;2023-04-01T00:12:38;43.08;;;6.95;;
35691;SDS011;26978;44.830;-0.674;2023-04-01T00:15:05;55.58;;;6.95;;
35691;SDS011;26978;44.830;-0.674;2023-04-01T00:17:32;51.35;;;6.60;;
35691;SDS011;26978;44.830;-0.674;2023-04-01T00:19:57;50.03;;;6.30;;
35691;SDS011;26978;44.830;-0.674;2023-04-01T00:22:24;36.38;;;5.03;;
35691;SDS011;26978;44.830;-0.674;2023-04-01T00:24:51;50.63;;;7.60;;
35691;SDS011;26978;44.830;-0.674;2023-04-01T00:27:17;41.78;;;6.60;;
35691;SDS011;26978;44.830;-0.674;2023-04-01T00:29:43;49.88;;;7.53;;
35691;SDS011;26978;44.830;-0.674;2023-04-01T00:32:09;65.18;;;8.30;;
35691;SDS011;26978;44.830;-0.674;2023-04-01T00:34:36;52.92;;;7.03;;
35691;SDS011;26978;44.830;-0.674;2023-04-01T00:37:02;63.25;;;7.90;;
35691;SDS011;26978;44.830;-0.674;2023-04-01T00:39:29;46.95;;;7.38;;
35691;SDS011;26978;44.830;-0.674;2023-04-01T00:41:56;63.80;;;9.57;;
35691;SDS011;26978;44.830;-0.674;2023-04-01T00:44:23;50.75;;;6.78;;
35691;SDS011;26978;44.830;-0.674;2023-04-01T00:46:51;50.72;;;7.68;;
35691;SDS011;26978;44.830;-0.674;2023-04-01T00:49:20;49.35;;;6.63;;
35691;SDS011;26978;44.830;-0.674;2023-04-01T00:51:49;52.67;;;7.60;;
35691;SDS011;26978;44.830;-0.674;2023-04-01T00:54:18;46.42;;;7.68;;
35691;SDS011;26978;44.830;-0.674;2023-04-01T00:56:50;51.85;;;7.70;;
35691;SDS011;26978;44.830;-0.674;2023-04-01T00:59:23;45.58;;;6.70;;
35691;SDS011;26978;44.830;-0.674;2023-04-01T01:01:54;39.20;;;5.10;;
35691;SDS011;26978;44.830;-0.674;2023-04-01T01:04:27;60.60;;;7.63;;
35691;SDS011;26978;44.830;-0.674;2023-04-01T01:06:58;50.28;;;7.45;;
35691;SDS011;26978;44.830;-0.674;2023-04-01T01:12:26;63.05;;;7.32;;
35691;SDS011;26978;44.830;-0.674;2023-04-01T01:18:01;61.78;;;6.97;;
35691;SDS011;26978;44.830;-0.674;2023-04-01T01:20:48;61.05;;;7.90;;
35691;SDS011;26978;44.830;-0.674;2023-04-01T01:34:32;61.20;;;7.85;;
35691;SDS011;26978;44.830;-0.674;2023-04-01T01:37:17;44.67;;;7.30;;
35691;SDS011;26978;44.830;-0.674;2023-04-01T01:39:48;53.13;;;7.55;;
35691;SDS011;26978;44.830;-0.674;2023-04-01T01:42:18;49.95;;;7.72;;
35691;SDS011;26978;44.830;-0.674;2023-04-01T01:44:46;38.42;;;5.32;;
35691;SDS011;26978;44.830;-0.674;2023-04-01T01:47:13;54.08;;;7.32;;
35691;SDS011;26978;44.830;-0.674;2023-04-01T01:49:42;65.60;;;8.23;;
35691;SDS011;26978;44.830;-0.674;2023-04-01T01:52:10;50.97;;;7.68;;
35691;SDS011;26978;44.830;-0.674;2023-04-01T01:54:46;42.47;;;7.05;;
35691;SDS011;26978;44.830;-0.674;2023-04-01T01:57:15;44.17;;;6.43;;
35691;SDS011;26978;44.830;-0.674;2023-04-01T01:59:42;47.47;;;6.55;;
35691;SDS011;26978;44.830;-0.674;2023-04-01T02:02:11;41.13;;;7.03;;
35691;SDS011;26978;44.830;-0.674;2023-04-01T02:04:40;51.08;;;7.53;;
35691;SDS011;26978;44.830;-0.674;2023-04-01T02:07:09;49.22;;;6.82;;
35691;SDS011;26978;44.830;-0.674;2023-04-01T02:09:39;54.97;;;7.45;;
35691;SDS011;26978;44.830;-0.674;2023-04-01T02:12:08;51.10;;;6.97;;
35691;SDS011;26978;44.830;-0.674;2023-04-01T02:17:10;58.60;;;7.68;;
35691;SDS011;26978;44.830;-0.674;2023-04-01T02:19:50;60.30;;;8.45;;
35691;SDS011;26978;44.830;-0.674;2023-04-01T02:22:55;46.85;;;7.22;;
35691;SDS011;26978;44.830;-0.674;2023-04-01T02:25:25;40.78;;;6.68;;
35691;SDS011;26978;44.830;-0.674;2023-04-01T02:27:53;52.90;;;7.68;;
35691;SDS011;26978;44.830;-0.674;2023-04-01T02:30:22;48.88;;;8.52;;
35691;SDS011;26978;44.830;-0.674;2023-04-01T02:32:49;53.65;;;7.13;;
35691;SDS011;26978;44.830;-0.674;2023-04-01T02:35:15;50.25;;;7.15;;
35691;SDS011;26978;44.830;-0.674;2023-04-01T02:37:42;52.47;;;7.32;;
35691;SDS011;26978;44.830;-0.674;2023-04-01T02:40:12;44.40;;;6.68;;
35691;SDS011;26978;44.830;-0.674;2023-04-01T02:42:39;49.90;;;7.25;;
35691;SDS011;26978;44.830;-0.674;2023-04-01T02:45:06;40.20;;;6.22;;
35691;SDS011;26978;44.830;-0.674;2023-04-01T02:47:32;50.53;;;7.70;;
35691;SDS011;26978;44.830;-0.674;2023-04-01T02:49:58;52.78;;;6.68;;
35691;SDS011;26978;44.830;-0.674;2023-04-01T02:52:27;48.92;;;7.75;;
35691;SDS011;26978;44.830;-0.674;2023-04-01T02:54:54;47.30;;;6.57;;
35691;SDS011;26978;44.830;-0.674;2023-04-01T02:57:20;49.95;;;6.57;;
35691;SDS011;26978;44.830;-0.674;2023-04-01T02:59:46;41.58;;;5.50;;
35691;SDS011;26978;44.830;-0.674;2023-04-01T03:02:12;53.78;;;6.95;;
35691;SDS011;26978;44.830;-0.674;2023-04-01T03:04:38;59.30;;;8.57;;
35691;SDS011;26978;44.830;-0.674;2023-04-01T03:07:03;44.72;;;8.10;;
35691;SDS011;26978;44.830;-0.674;2023-04-01T03:09:29;40.80;;;6.35;;
35691;SDS011;26978;44.830;-0.674;2023-04-01T03:11:55;42.90;;;5.93;;
35691;SDS011;26978;44.830;-0.674;2023-04-01T03:14:21;35.28;;;5.07;;
35691;SDS011;26978;44.830;-0.674;2023-04-01T03:16:46;45.22;;;6.00;;
35691;SDS011;26978;44.830;-0.674;2023-04-01T03:19:12;36.63;;;5.95;;
35691;SDS011;26978;44.830;-0.674;2023-04-01T03:21:38;41.95;;;5.65;;
35691;SDS011;26978;44.830;-0.674;2023-04-01T03:24:03;34.90;;;4.60;;
35691;SDS011;26978;44.830;-0.674;2023-04-01T03:26:30;35.03;;;5.28;;
35691;SDS011;26978;44.830;-0.674;2023-04-01T03:28:55;54.22;;;6.38;;
35691;SDS011;26978;44.830;-0.674;2023-04-01T03:31:21;49.10;;;6.65;;
35691;SDS011;26978;44.830;-0.674;2023-04-01T03:33:47;47.40;;;6.28;;
35691;SDS011;26978;44.830;-0.674;2023-04-01T03:36:13;40.92;;;5.88;;
35691;SDS011;26978;44.830;-0.674;2023-04-01T03:38:40;48.13;;;6.55;;
35691;SDS011;26978;44.830;-0.674;2023-04-01T03:41:06;43.55;;;6.85;;
35691;SDS011;26978;44.830;-0.674;2023-04-01T03:43:32;55.67;;;6.68;;
35691;SDS011;26978;44.830;-0.674;2023-04-01T03:45:58;54.95;;;6.53;;
35691;SDS011;26978;44.830;-0.674;2023-04-01T03:48:24;49.70;;;6.03;;
35691;SDS011;26978;44.830;-0.674;2023-04-01T03:50:50;57.78;;;7.15;;
35691;SDS011;26978;44.830;-0.674;2023-04-01T03:53:16;61.88;;;7.30;;
35691;SDS011;26978;44.830;-0.674;2023-04-01T03:55:42;46.45;;;6.22;;
35691;SDS011;26978;44.830;-0.674;2023-04-01T03:58:08;50.28;;;5.97;;
35691;SDS011;26978;44.830;-0.674;2023-04-01T04:00:34;40.72;;;5.75;;
35691;SDS011;26978;44.830;-0.674;2023-04-01T04:03:00;50.83;;;6.70;;
35691;SDS011;26978;44.830;-0.674;2023-04-01T04:05:26;43.80;;;6.43;;
35691;SDS011;26978;44.830;-0.674;2023-04-01T04:07:52;59.63;;;7.85;;
35691;SDS011;26978;44.830;-0.674;2023-04-01T04:10:18;51.40;;;5.90;;
35691;SDS011;26978;44.830;-0.674;2023-04-01T04:12:44;41.03;;;6.13;;
35691;SDS011;26978;44.830;-0.674;2023-04-01T04:15:10;37.50;;;6.28;;
35691;SDS011;26978;44.830;-0.674;2023-04-01T04:17:35;53.03;;;6.20;;
35691;SDS011;26978;44.830;-0.674;2023-04-01T04:20:02;48.17;;;6.35;;
35691;SDS011;26978;44.830;-0.674;2023-04-01T04:22:28;60.80;;;6.35;;
35691;SDS011;26978;44.830;-0.674;2023-04-01T04:24:53;34.83;;;5.28;;
35691;SDS011;26978;44.830;-0.674;2023-04-01T04:27:19;40.85;;;6.43;;
35691;SDS011;26978;44.830;-0.674;2023-04-01T04:29:45;65.60;;;7.03;;
35691;SDS011;26978;44.830;-0.674;2023-04-01T04:32:10;61.78;;;6.93;;
35691;SDS011;26978;44.830;-0.674;2023-04-01T04:34:36;42.33;;;6.45;;
35691;SDS011;26978;44.830;-0.674;2023-04-01T04:37:02;47.53;;;7.18;;
35691;SDS011;26978;44.830;-0.674;2023-04-01T04:39:27;45.83;;;6.43;;
35691;SDS011;26978;44.830;-0.674;2023-04-01T04:41:53;49.92;;;6.90;;
35691;SDS011;26978;44.830;-0.674;2023-04-01T04:44:19;66.18;;;7.13;;
35691;SDS011;26978;44.830;-0.674;2023-04-01T04:46:45;63.75;;;6.85;;
35691;SDS011;26978;44.830;-0.674;2023-04-01T04:49:10;69.35;;;8.25;;
35691;SDS011;26978;44.830;-0.674;2023-04-01T04:51:36;48.40;;;7.07;;
35691;SDS011;26978;44.830;-0.674;2023-04-01T04:54:03;51.85;;;7.22;;
35691;SDS011;26978;44.830;-0.674;2023-04-01T04:56:29;54.22;;;6.93;;
35691;SDS011;26978;44.830;-0.674;2023-04-01T04:58:55;52.20;;;7.45;;
35691;SDS011;26978;44.830;-0.674;2023-04-01T05:01:21;65.10;;;9.10;;
35691;SDS011;26978;44.830;-0.674;2023-04-01T05:03:47;57.88;;;7.68;;
35691;SDS011;26978;44.830;-0.674;2023-04-01T05:06:13;48.00;;;7.60;;
35691;SDS011;26978;44.830;-0.674;2023-04-01T05:08:41;56.28;;;7.53;;
35691;SDS011;26978;44.830;-0.674;2023-04-01T05:11:09;69.25;;;8.57;;
35691;SDS011;26978;44.830;-0.674;2023-04-01T05:13:40;49.53;;;7.40;;
35691;SDS011;26978;44.830;-0.674;2023-04-01T05:16:10;57.58;;;6.78;;
35691;SDS011;26978;44.830;-0.674;2023-04-01T05:18:45;52.40;;;7.45;;
35691;SDS011;26978;44.830;-0.674;2023-04-01T05:21:12;53.67;;;7.40;;
35691;SDS011;26978;44.830;-0.674;2023-04-01T05:23:39;50.72;;;7.70;;
35691;SDS011;26978;44.830;-0.674;2023-04-01T05:26:05;56.58;;;8.48;;
35691;SDS011;26978;44.830;-0.674;2023-04-01T05:28:33;63.60;;;8.95;;
35691;SDS011;26978;44.830;-0.674;2023-04-01T05:30:59;52.63;;;7.28;;
35691;SDS011;26978;44.830;-0.674;2023-04-01T05:33:26;56.42;;;7.65;;
35691;SDS011;26978;44.830;-0.674;2023-04-01T05:35:52;68.65;;;7.65;;
35691;SDS011;26978;44.830;-0.674;2023-04-01T05:38:18;53.30;;;7.10;;
35691;SDS011;26978;44.830;-0.674;2023-04-01T05:40:44;61.05;;;7.43;;
35691;SDS011;26978;44.830;-0.674;2023-04-01T05:43:10;46.83;;;6.47;;
35691;SDS011;26978;44.830;-0.674;2023-04-01T05:45:36;65.90;;;9.30;;
35691;SDS011;26978;44.830;-0.674;2023-04-01T05:48:02;57.35;;;8.18;;
35691;SDS011;26978;44.830;-0.674;2023-04-01T05:50:28;49.47;;;7.20;;
35691;SDS011;26978;44.830;-0.674;2023-04-01T05:52:54;58.38;;;7.38;;
35691;SDS011;26978;44.830;-0.674;2023-04-01T05:55:19;53.05;;;6.85;;
35691;SDS011;26978;44.830;-0.674;2023-04-01T05:57:45;47.17;;;7.15;;
35691;SDS011;26978;44.830;-0.674;2023-04-01T06:00:13;53.88;;;7.53;;
35691;SDS011;26978;44.830;-0.674;2023-04-01T06:02:40;58.40;;;7.35;;
35691;SDS011;26978;44.830;-0.674;2023-04-01T06:07:43;53.88;;;6.43;;
35691;SDS011;26978;44.830;-0.674;2023-04-01T06:10:19;49.53;;;7.93;;
35691;SDS011;26978;44.830;-0.674;2023-04-01T06:37:28;34.40;;;4.15;;
35691;SDS011;26978;44.830;-0.674;2023-04-01T06:43:10;31.70;;;4.57;;
35691;SDS011;26978;44.830;-0.674;2023-04-01T06:46:59;36.95;;;4.88;;
35691;SDS011;26978;44.830;-0.674;2023-04-01T06:54:25;41.05;;;6.07;;
35691;SDS011;26978;44.830;-0.674;2023-04-01T06:56:59;48.78;;;5.55;;
35691;SDS011;26978;44.830;-0.674;2023-04-01T06:59:32;35.78;;;6.30;;
35691;SDS011;26978;44.830;-0.674;2023-04-01T07:04:55;47.95;;;5.82;;
35691;SDS011;26978;44.830;-0.674;2023-04-01T07:09:55;44.40;;;5.93;;
35691;SDS011;26978;44.830;-0.674;2023-04-01T07:12:37;35.15;;;5.55;;
35691;SDS011;26978;44.830;-0.674;2023-04-01T07:17:43;51.03;;;5.97;;
35691;SDS011;26978;44.830;-0.674;2023-04-01T07:22:59;45.10;;;5.80;;
35691;SDS011;26978;44.830;-0.674;2023-04-01T07:25:33;37.85;;;6.35;;
35691;SDS011;26978;44.830;-0.674;2023-04-01T07:28:06;45.42;;;7.00;;
35691;SDS011;26978;44.830;-0.674;2023-04-01T07:30:44;50.17;;;6.55;;
35691;SDS011;26978;44.830;-0.674;2023-04-01T07:36:13;44.70;;;7.32;;
35691;SDS011;26978;44.830;-0.674;2023-04-01T07:41:31;41.75;;;5.78;;
35691;SDS011;26978;44.830;-0.674;2023-04-01T07:46:46;55.55;;;7.50;;
35691;SDS011;26978;44.830;-0.674;2023-04-01T07:57:03;48.57;;;8.27;;
35691;SDS011;26978;44.830;-0.674;2023-04-01T07:59:42;56.17;;;9.18;;
35691;SDS011;26978;44.830;-0.674;2023-04-01T08:05:35;44.30;;;6.93;;
35691;SDS011;26978;44.830;-0.674;2023-04-01T08:10:57;43.65;;;5.22;;
35691;SDS011;26978;44.830;-0.674;2023-04-01T08:17:05;38.25;;;5.50;;
35691;SDS011;26978;44.830;-0.674;2023-04-01T08:25:24;25.45;;;3.70;;
35691;SDS011;26978;44.830;-0.674;2023-04-01T08:31:11;32.97;;;4.90;;
35691;SDS011;26978;44.830;-0.674;2023-04-01T08:33:31;26.95;;;4.15;;
35691;SDS011;26978;44.830;-0.674;2023-04-01T08:38:34;38.80;;;6.05;;
35691;SDS011;26978;44.830;-0.674;2023-04-01T08:41:21;33.40;;;5.47;;
35691;SDS011;26978;44.830;-0.674;2023-04-01T08:44:03;25.08;;;4.35;;
35691;SDS011;26978;44.830;-0.674;2023-04-01T08:59:30;45.65;;;7.10;;
35691;SDS011;26978;44.830;-0.674;2023-04-01T09:10:15;29.05;;;4.25;;
35691;SDS011;26978;44.830;-0.674;2023-04-01T10:08:58;29.65;;;4.13;;
35691;SDS011;26978;44.830;-0.674;2023-04-01T10:23:40;19.10;;;3.22;;
35691;SDS011;26978;44.830;-0.674;2023-04-01T10:36:47;25.48;;;3.95;;
35691;SDS011;26978;44.830;-0.674;2023-04-01T10:56:59;29.73;;;4.95;;
35691;SDS011;26978;44.830;-0.674;2023-04-01T11:00:03;25.73;;;3.22;;
35691;SDS011;26978;44.830;-0.674;2023-04-01T11:27:54;21.30;;;2.53;;
35691;SDS011;26978;44.830;-0.674;2023-04-01T11:33:31;18.10;;;2.70;;
35691;SDS011;26978;44.830;-0.674;2023-04-01T11:36:19;21.05;;;3.38;;
35691;SDS011;26978;44.830;-0.674;2023-04-01T11:52:14;23.10;;;3.45;;
35691;SDS011;26978;44.830;-0.674;2023-04-01T11:55:01;21.42;;;2.90;;
35691;SDS011;26978;44.830;-0.674;2023-04-01T11:57:38;18.48;;;2.88;;
35691;SDS011;26978;44.830;-0.674;2023-04-01T12:06:44;14.93;;;2.20;;
35691;SDS011;26978;44.830;-0.674;2023-04-01T12:08:59;12.20;;;2.45;;
35691;SDS011;26978;44.830;-0.674;2023-04-01T12:19:55;20.50;;;3.05;;
35691;SDS011;26978;44.830;-0.674;2023-04-01T12:25:16;19.13;;;3.30;;
35691;SDS011;26978;44.830;-0.674;2023-04-01T12:28:20;18.17;;;2.60;;
35691;SDS011;26978;44.830;-0.674;2023-04-01T12:56:04;5.05;;;0.70;;
35691;SDS011;26978;44.830;-0.674;2023-04-01T13:01:30;3.40;;;0.45;;
35691;SDS011;26978;44.830;-0.674;2023-04-01T13:12:58;8.27;;;1.10;;
35691;SDS011;26978;44.830;-0.674;2023-04-01T13:15:31;5.22;;;1.30;;
35691;SDS011;26978;44.830;-0.674;2023-04-01T13:27:05;7.95;;;1.42;;
35691;SDS011;26978;44.830;-0.674;2023-04-01T13:35:26;11.63;;;1.88;;
35691;SDS011;26978;44.830;-0.674;2023-04-01T13:43:29;12.63;;;1.83;;
35691;SDS011;26978;44.830;-0.674;2023-04-01T13:51:40;17.33;;;1.77;;
35691;SDS011;26978;44.830;-0.674;2023-04-01T13:57:14;11.77;;;1.30;;
35691;SDS011;26978;44.830;-0.674;2023-04-01T14:33:37;12.43;;;2.17;;
35691;SDS011;26978;44.830;-0.674;2023-04-01T14:41:35;15.07;;;1.30;;
35691;SDS011;26978;44.830;-0.674;2023-04-01T14:44:15;10.73;;;1.70;;
35691;SDS011;26978;44.830;-0.674;2023-04-01T14:49:53;17.08;;;1.90;;
35691;SDS011;26978;44.830;-0.674;2023-04-01T14:52:35;20.10;;;2.58;;
35691;SDS011;26978;44.830;-0.674;2023-04-01T14:58:11;7.03;;;1.77;;
35691;SDS011;26978;44.830;-0.674;2023-04-01T15:00:45;8.40;;;1.50;;
35691;SDS011;26978;44.830;-0.674;2023-04-01T15:20:20;12.45;;;1.73;;
35691;SDS011;26978;44.830;-0.674;2023-04-01T15:31:16;15.32;;;1.25;;
35691;SDS011;26978;44.830;-0.674;2023-04-01T15:36:26;13.82;;;1.60;;
35691;SDS011;26978;44.830;-0.674;2023-04-01T15:39:13;7.63;;;1.90;;
35691;SDS011;26978;44.830;-0.674;2023-04-01T15:42:01;16.63;;;2.25;;
35691;SDS011;26978;44.830;-0.674;2023-04-01T15:44:42;22.05;;;2.70;;
35691;SDS011;26978;44.830;-0.674;2023-04-01T15:47:33;14.00;;;2.63;;
35691;SDS011;26978;44.830;-0.674;2023-04-01T16:01:26;11.73;;;1.70;;
35691;SDS011;26978;44.830;-0.674;2023-04-01T16:10:09;10.93;;;2.10;;
35691;SDS011;26978;44.830;-0.674;2023-04-01T16:21:37;17.67;;;2.17;;
35691;SDS011;26978;44.830;-0.674;2023-04-01T16:27:13;11.73;;;1.77;;
35691;SDS011;26978;44.830;-0.674;2023-04-01T16:29:52;7.57;;;1.13;;
35691;SDS011;26978;44.830;-0.674;2023-04-01T16:37:45;4.88;;;1.00;;
35691;SDS011;26978;44.830;-0.674;2023-04-01T16:43:13;10.43;;;1.65;;
35691;SDS011;26978;44.830;-0.674;2023-04-01T16:45:54;10.45;;;2.00;;
35691;SDS011;26978;44.830;-0.674;2023-04-01T16:54:36;16.08;;;1.92;;
35691;SDS011;26978;44.830;-0.674;2023-04-01T16:59:52;11.48;;;1.77;;
35691;SDS011;26978;44.830;-0.674;2023-04-01T17:02:28;9.93;;;1.48;;
35691;SDS011;26978;44.830;-0.674;2023-04-01T17:05:13;12.32;;;1.42;;
35691;SDS011;26978;44.830;-0.674;2023-04-01T17:13:35;12.82;;;1.70;;
35691;SDS011;26978;44.830;-0.674;2023-04-01T17:16:20;9.05;;;1.38;;
35691;SDS011;26978;44.830;-0.674;2023-04-01T17:35:39;18.15;;;2.35;;
35691;SDS011;26978;44.830;-0.674;2023-04-01T17:41:08;15.13;;;2.10;;
35691;SDS011;26978;44.830;-0.674;2023-04-01T17:49:45;15.82;;;2.13;;
35691;SDS011;26978;44.830;-0.674;2023-04-01T17:57:51;18.05;;;2.13;;
35691;SDS011;26978;44.830;-0.674;2023-04-01T18:06:15;13.40;;;2.30;;
35691;SDS011;26978;44.830;-0.674;2023-04-01T18:08:59;10.40;;;1.13;;
35691;SDS011;26978;44.830;-0.674;2023-04-01T18:17:33;13.40;;;1.92;;
35691;SDS011;26978;44.830;-0.674;2023-04-01T18:23:22;28.77;;;2.85;;
35691;SDS011;26978;44.830;-0.674;2023-04-01T18:26:09;15.85;;;2.50;;
35691;SDS011;26978;44.830;-0.674;2023-04-01T18:28:50;17.52;;;2.67;;
35691;SDS011;26978;44.830;-0.674;2023-04-01T18:31:23;19.05;;;2.75;;
35691;SDS011;26978;44.830;-0.674;2023-04-01T18:37:00;22.67;;;2.70;;
35691;SDS011;26978;44.830;-0.674;2023-04-01T18:39:42;15.30;;;2.58;;
35691;SDS011;26978;44.830;-0.674;2023-04-01T18:52:44;24.92;;;3.28;;
35691;SDS011;26978;44.830;-0.674;2023-04-01T18:57:49;22.90;;;2.53;;
35691;SDS011;26978;44.830;-0.674;2023-04-01T19:00:19;14.18;;;2.17;;
35691;SDS011;26978;44.830;-0.674;2023-04-01T19:03:11;7.18;;;1.05;;
35691;SDS011;26978;44.830;-0.674;2023-04-01T19:05:36;11.88;;;1.80;;
35691;SDS011;26978;44.830;-0.674;2023-04-01T19:16:56;14.45;;;1.92;;
35691;SDS011;26978;44.830;-0.674;2023-04-01T19:22:39;7.00;;;1.55;;
35691;SDS011;26978;44.830;-0.674;2023-04-01T19:27:42;8.68;;;2.10;;
35691;SDS011;26978;44.830;-0.674;2023-04-01T19:35:36;13.75;;;3.45;;
35691;SDS011;26978;44.830;-0.674;2023-04-01T19:46:44;13.90;;;2.10;;
35691;SDS011;26978;44.830;-0.674;2023-04-01T19:52:18;8.25;;;1.80;;
35691;SDS011;26978;44.830;-0.674;2023-04-01T20:00:31;12.63;;;1.85;;
35691;SDS011;26978;44.830;-0.674;2023-04-01T20:14:10;15.40;;;1.88;;
35691;SDS011;26978;44.830;-0.674;2023-04-01T20:16:49;14.27;;;1.70;;
35691;SDS011;26978;44.830;-0.674;2023-04-01T20:19:25;22.75;;;2.70;;
35691;SDS011;26978;44.830;-0.674;2023-04-01T20:22:22;11.38;;;1.73;;
35691;SDS011;26978;44.830;-0.674;2023-04-01T20:25:15;15.95;;;2.45;;
35691;SDS011;26978;44.830;-0.674;2023-04-01T20:27:45;16.10;;;1.83;;
35691;SDS011;26978;44.830;-0.674;2023-04-01T20:30:38;14.18;;;2.05;;
35691;SDS011;26978;44.830;-0.674;2023-04-01T20:33:18;14.45;;;2.35;;
35691;SDS011;26978;44.830;-0.674;2023-04-01T20:42:22;18.88;;;2.45;;
35691;SDS011;26978;44.830;-0.674;2023-04-01T20:53:07;26.80;;;2.55;;
35691;SDS011;26978;44.830;-0.674;2023-04-01T20:58:15;16.30;;;2.95;;
35691;SDS011;26978;44.830;-0.674;2023-04-01T21:12:12;18.58;;;2.40;;
35691;SDS011;26978;44.830;-0.674;2023-04-01T21:19:56;21.77;;;2.40;;
35691;SDS011;26978;44.830;-0.674;2023-04-01T21:39:00;19.77;;;2.28;;
35691;SDS011;26978;44.830;-0.674;2023-04-01T22:06:53;24.30;;;2.20;;
35691;SDS011;26978;44.830;-0.674;2023-04-01T22:17:33;25.00;;;2.72;;
35691;SDS011;26978;44.830;-0.674;2023-04-01T22:28:32;20.88;;;2.95;;
35691;SDS011;26978;44.830;-0.674;2023-04-01T22:31:25;21.60;;;2.50;;
35691;SDS011;26978;44.830;-0.674;2023-04-01T22:39:32;24.83;;;4.22;;
35691;SDS011;26978;44.830;-0.674;2023-04-01T22:42:18;26.08;;;2.90;;
35691;SDS011;26978;44.830;-0.674;2023-04-01T22:45:02;30.88;;;2.80;;
35691;SDS011;26978;44.830;-0.674;2023-04-01T22:55:38;26.80;;;4.07;;
35691;SDS011;26978;44.830;-0.674;2023-04-01T22:58:14;34.30;;;3.65;;
35691;SDS011;26978;44.830;-0.674;2023-04-01T23:00:47;33.63;;;3.67;;
35691;SDS011;26978;44.830;-0.674;2023-04-01T23:03:22;35.50;;;3.55;;
35691;SDS011;26978;44.830;-0.674;2023-04-01T23:06:01;31.52;;;3.70;;
35691;SDS011;26978;44.830;-0.674;2023-04-01T23:11:29;28.63;;;3.60;;
35691;SDS011;26978;44.830;-0.674;2023-04-01T23:16:46;27.48;;;3.67;;
35691;SDS011;26978;44.830;-0.674;2023-04-01T23:19:21;28.45;;;4.43;;
35691;SDS011;26978;44.830;-0.674;2023-04-01T23:21:53;28.98;;;3.30;;
35691;SDS011;26978;44.830;-0.674;2023-04-01T23:24:46;36.60;;;3.60;;
35691;SDS011;26978;44.830;-0.674;2023-04-01T23:27:28;38.88;;;4.00;;
35691;SDS011;26978;44.830;-0.674;2023-04-01T23:30:02;29.27;;;2.80;;
35691;SDS011;26978;44.830;-0.674;2023-04-01T23:32:28;40.95;;;3.47;;
35691;SDS011;26978;44.830;-0.674;2023-04-01T23:34:55;32.72;;;3.53;;
35691;SDS011;26978;44.830;-0.674;2023-04-01T23:37:23;28.10;;;3.00;;
35691;SDS011;26978;44.830;-0.674;2023-04-01T23:39:53;29.90;;;3.90;;
35691;SDS011;26978;44.830;-0.674;2023-04-01T23:42:23;28.98;;;3.03;;
35691;SDS011;26978;44.830;-0.674;2023-04-01T23:44:55;30.67;;;3.42;;
35691;SDS011;26978;44.830;-0.674;2023-04-01T23:47:29;38.30;;;3.75;;
35691;SDS011;26978;44.830;-0.674;2023-04-01T23:49:58;30.42;;;3.30;;
35691;SDS011;26978;44.830;-0.674;2023-04-01T23:52:30;36.53;;;3.05;;
35691;SDS011;26978;44.830;-0.674;2023-04-01T23:55:08;35.58;;;3.97;;
35691;SDS011;26978;44.830;-0.674;2023-04-01T23:57:39;27.90;;;3.42;;
